Time;durP1;ratioP1;P1;durP2;ratioP2;P2;SDS_P1;SDS_P2;PMS_P1;PMS_P2;Temp;Humidity;BMP_temperature;BMP_pressure;BME280_temperature;BME280_humidity;BME280_pressure;Samples;Min_cycle;Max_cycle;Signal;HPM_P1;HPM_P2
2022/01/13 00:00:57;;;;;;;;;;;4.40;88.30;;;;;;5086242;28;19967;-62
2022/01/13 00:03:22;;;;;;;;;;;4.50;88.30;;;;;;5104166;28;19923;-62
2022/01/13 00:05:48;;;;;;;;;;;4.40;88.20;;;;;;5087753;28;19915;-62
2022/01/13 00:08:13;;;;;;;;;;;4.40;88.20;;;;;;5068956;28;20422;-62
2022/01/13 00:10:39;;;;;;;;;;;4.60;88.30;;;;;;5070010;28;19920;-62
2022/01/13 00:13:09;;;;;;;;;;;4.40;88.30;;;;;;5088038;28;19923;-62
2022/01/13 00:15:47;;;;;;;;;;;4.40;88.20;;;;;;5070444;28;19916;-61
2022/01/13 00:18:16;;;;;;;;;;;4.50;88.30;;;;;;5105310;28;20310;-62
2022/01/13 00:25:58;;;;;;;;;;;4.30;88.30;;;;;;5104375;28;20360;-62
2022/01/13 00:28:24;;;;;;;;;;;4.30;88.50;;;;;;5087511;28;19923;-62
2022/01/13 00:30:51;;;;;;;;;;;4.30;88.50;;;;;;5104011;28;20224;-62
2022/01/13 00:33:23;;;;;;;;;;;4.30;88.40;;;;;;5069892;28;19927;-62
2022/01/13 00:35:48;;;;;;;;;;;4.30;88.40;;;;;;5086178;28;19908;-62
2022/01/13 00:38:13;;;;;;;;;;;4.30;88.40;;;;;;5070351;28;19977;-62
2022/01/13 00:40:39;;;;;;;;;;;4.30;88.50;;;;;;5086868;28;19912;-62
2022/01/13 00:43:04;;;;;;;;;;;4.20;88.50;;;;;;5069642;28;20355;-62
2022/01/13 00:45:30;;;;;;;;;;;4.20;88.60;;;;;;5068591;28;19976;-63
2022/01/13 00:47:55;;;;;;;;;;;4.10;88.50;;;;;;5085319;28;19908;-62
2022/01/13 00:50:21;;;;;;;;;;;4.20;88.60;;;;;;5086016;28;20153;-61
2022/01/13 00:52:46;;;;;;;;;;;4.20;88.60;;;;;;5086700;28;20457;-62
2022/01/13 00:55:17;;;;;;;;;;;4.20;88.70;;;;;;5070341;28;19981;-62
2022/01/13 00:57:42;;;;;;;;;;;4.20;88.70;;;;;;5087078;28;19939;-62
2022/01/13 01:00:08;;;;;;;;;;;4.10;88.60;;;;;;5084816;28;20359;-62
2022/01/13 01:02:34;;;;;;;;;;;4.20;88.60;;;;;;5069907;28;19920;-62
2022/01/13 01:04:59;;;;;;;;;;;4.10;88.60;;;;;;5086517;28;19915;-62
2022/01/13 01:07:24;;;;;;;;;;;4.10;88.70;;;;;;5068692;28;20329;-62
2022/01/13 01:09:51;;;;;;;;;;;4.10;88.80;;;;;;5068479;28;19916;-62
2022/01/13 01:12:17;;;;;;;;;;;4.10;88.80;;;;;;5085985;28;19918;-62
2022/01/13 01:14:47;;;;;;;;;;;4.10;88.70;;;;;;5104242;28;20291;-63
2022/01/13 01:17:15;;;;;;;;;;;4.10;88.80;;;;;;5086217;28;20081;-61
2022/01/13 01:19:44;;;;;;;;;;;4.10;88.70;;;;;;5068627;28;20290;-62
2022/01/13 01:22:32;;;;;;;;;;;4.00;88.70;;;;;;5067899;28;19933;-62
2022/01/13 01:25:31;;;;;;;;;;;4.00;88.80;;;;;;5103004;28;19923;-62
2022/01/13 01:27:54;;;;;;;;;;;4.00;88.80;;;;;;5090592;28;20039;-62
2022/01/13 01:32:51;;;;;;;;;;;4.00;88.80;;;;;;5104197;28;20382;-61
2022/01/13 01:35:18;;;;;;;;;;;4.00;88.80;;;;;;5067750;28;19912;-62
2022/01/13 01:37:44;;;;;;;;;;;4.00;89.00;;;;;;5084690;28;20017;-62
2022/01/13 01:40:10;;;;;;;;;;;4.00;89.00;;;;;;5102054;28;20003;-62
2022/01/13 01:42:35;;;;;;;;;;;4.00;89.00;;;;;;5084479;28;19908;-62
2022/01/13 01:45:01;;;;;;;;;;;4.00;89.10;;;;;;5086918;28;20221;-62
2022/01/13 01:47:28;;;;;;;;;;;4.00;89.10;;;;;;5085562;28;19908;-62
2022/01/13 01:49:56;;;;;;;;;;;4.00;88.90;;;;;;5083422;28;19950;-62
2022/01/13 01:52:22;;;;;;;;;;;4.00;89.00;;;;;;5084317;28;19908;-62
2022/01/13 01:54:47;;;;;;;;;;;4.00;89.10;;;;;;5084787;28;19907;-62
2022/01/13 01:57:13;;;;;;;;;;;4.00;89.10;;;;;;5086434;28;19916;-62
2022/01/13 01:59:41;;;;;;;;;;;4.00;89.20;;;;;;5101499;28;19916;-62
2022/01/13 02:02:07;;;;;;;;;;;3.90;89.30;;;;;;5087346;28;19916;-62
2022/01/13 02:04:32;;;;;;;;;;;3.90;89.60;;;;;;5088561;28;20359;-62
2022/01/13 02:07:04;;;;;;;;;;;3.90;89.60;;;;;;5090440;28;19924;-61
2022/01/13 02:09:29;;;;;;;;;;;3.90;89.80;;;;;;5089953;28;19943;-62
2022/01/13 02:11:59;;;;;;;;;;;3.90;90.00;;;;;;5088541;28;20593;-62
2022/01/13 02:16:56;;;;;;;;;;;3.90;90.00;;;;;;5088457;28;19922;-61
2022/01/13 02:19:21;;;;;;;;;;;3.90;90.00;;;;;;5072358;28;19916;-62
2022/01/13 02:21:47;;;;;;;;;;;3.90;90.00;;;;;;5090038;28;19914;-61
2022/01/13 02:24:12;;;;;;;;;;;3.90;90.00;;;;;;5089336;28;20308;-61
2022/01/13 02:26:38;;;;;;;;;;;3.80;90.00;;;;;;5071970;28;19964;-62
2022/01/13 02:29:03;;;;;;;;;;;3.80;90.00;;;;;;5087372;28;20256;-62
2022/01/13 02:31:29;;;;;;;;;;;3.80;90.30;;;;;;5090111;28;19989;-62
2022/01/13 02:33:54;;;;;;;;;;;3.80;90.00;;;;;;5088720;28;19915;-62
2022/01/13 02:36:20;;;;;;;;;;;3.80;90.00;;;;;;5108054;27;20349;-62
2022/01/13 02:38:46;;;;;;;;;;;3.80;90.00;;;;;;5106481;28;19908;-61
2022/01/13 02:41:12;;;;;;;;;;;3.80;89.90;;;;;;5086636;28;19915;-62
2022/01/13 02:43:37;;;;;;;;;;;3.80;90.00;;;;;;5105217;28;19998;-62
2022/01/13 02:46:28;;;;;;;;;;;3.80;90.00;;;;;;5105923;28;19915;-61
2022/01/13 02:48:54;;;;;;;;;;;3.80;90.00;;;;;;5089276;28;19931;-62
2022/01/13 02:51:20;;;;;;;;;;;3.70;90.00;;;;;;5087734;28;20407;-62
2022/01/13 02:53:45;;;;;;;;;;;3.70;90.00;;;;;;5088315;28;19990;-62
2022/01/13 02:56:10;;;;;;;;;;;3.70;90.10;;;;;;5087619;28;20447;-61
2022/01/13 02:58:36;;;;;;;;;;;3.70;90.10;;;;;;5087945;28;19911;-62
2022/01/13 03:01:02;;;;;;;;;;;3.70;90.10;;;;;;5105571;28;19911;-62
2022/01/13 03:03:29;;;;;;;;;;;3.70;90.00;;;;;;5107246;28;19922;-62
2022/01/13 03:05:54;;;;;;;;;;;3.70;90.00;;;;;;5088798;28;19928;-62
2022/01/13 03:08:20;;;;;;;;;;;3.60;90.00;;;;;;5069405;28;20258;-62
2022/01/13 03:10:45;;;;;;;;;;;3.70;90.10;;;;;;5087853;28;20406;-62
2022/01/13 03:13:11;;;;;;;;;;;3.70;90.00;;;;;;5087693;28;19923;-62
2022/01/13 03:15:36;;;;;;;;;;;3.70;90.00;;;;;;5088049;28;19907;-62
2022/01/13 03:18:02;;;;;;;;;;;3.70;90.00;;;;;;5071308;28;19911;-61
2022/01/13 03:20:27;;;;;;;;;;;3.70;90.00;;;;;;5069378;28;19912;-62
2022/01/13 03:22:53;;;;;;;;;;;3.60;89.90;;;;;;5070121;28;19962;-61
2022/01/13 03:25:23;;;;;;;;;;;3.70;90.00;;;;;;5087239;28;19943;-62
2022/01/13 03:27:55;;;;;;;;;;;3.70;90.00;;;;;;5071430;28;19968;-61
2022/01/13 03:30:21;;;;;;;;;;;3.70;89.90;;;;;;5070504;28;19916;-62
2022/01/13 03:32:46;;;;;;;;;;;3.60;89.90;;;;;;5104836;28;19918;-62
2022/01/13 03:35:12;;;;;;;;;;;3.60;89.90;;;;;;5086225;28;20196;-62
2022/01/13 03:37:37;;;;;;;;;;;3.70;89.90;;;;;;5086396;28;19920;-62
2022/01/13 03:40:03;;;;;;;;;;;3.60;89.90;;;;;;5085904;28;20010;-63
2022/01/13 03:42:28;;;;;;;;;;;3.60;89.90;;;;;;5070513;28;19912;-62
2022/01/13 03:44:54;;;;;;;;;;;3.60;89.90;;;;;;5068947;28;20379;-62
2022/01/13 03:47:20;;;;;;;;;;;3.60;89.90;;;;;;5069428;28;19908;-62
2022/01/13 03:49:46;;;;;;;;;;;3.60;89.90;;;;;;5085545;28;20435;-61
2022/01/13 03:52:23;;;;;;;;;;;3.60;89.90;;;;;;5087722;28;19927;-62
2022/01/13 03:54:49;;;;;;;;;;;3.60;89.60;;;;;;5105080;28;19916;-62
2022/01/13 03:57:32;;;;;;;;;;;3.60;89.70;;;;;;5105849;28;19911;-62
2022/01/13 04:00:16;;;;;;;;;;;3.60;89.60;;;;;;5068392;28;19954;-62
2022/01/13 04:02:41;;;;;;;;;;;3.60;89.60;;;;;;5105634;28;19923;-61
2022/01/13 04:05:07;;;;;;;;;;;3.60;89.70;;;;;;5105981;28;19924;-62
2022/01/13 04:07:32;;;;;;;;;;;3.60;89.70;;;;;;5088358;28;19919;-62
2022/01/13 04:09:58;;;;;;;;;;;3.60;89.70;;;;;;5086980;28;19961;-61
2022/01/13 04:12:26;;;;;;;;;;;3.60;89.60;;;;;;5087154;28;20002;-62
2022/01/13 04:14:55;;;;;;;;;;;3.60;89.60;;;;;;5085909;28;19907;-62
2022/01/13 04:17:21;;;;;;;;;;;3.60;89.60;;;;;;5087593;28;20362;-62
2022/01/13 04:19:46;;;;;;;;;;;3.60;89.50;;;;;;5069237;28;19916;-62
2022/01/13 04:22:12;;;;;;;;;;;3.60;89.70;;;;;;5087293;28;19961;-62
2022/01/13 04:24:38;;;;;;;;;;;3.50;89.50;;;;;;5069696;28;19930;-62
2022/01/13 04:27:04;;;;;;;;;;;3.60;89.50;;;;;;5085687;28;20300;-62
2022/01/13 04:29:34;;;;;;;;;;;3.60;89.50;;;;;;5069146;28;19912;-62
2022/01/13 04:32:00;;;;;;;;;;;3.60;89.40;;;;;;5087279;28;20023;-62
2022/01/13 04:34:26;;;;;;;;;;;3.60;89.50;;;;;;5069958;28;20525;-61
2022/01/13 04:36:54;;;;;;;;;;;3.60;89.40;;;;;;5086595;28;20007;-61
2022/01/13 04:39:20;;;;;;;;;;;3.60;89.40;;;;;;5085076;28;20601;-62
2022/01/13 04:41:46;;;;;;;;;;;3.60;89.40;;;;;;5086225;28;19912;-63
2022/01/13 04:44:13;;;;;;;;;;;3.60;89.30;;;;;;5069200;28;19908;-62
2022/01/13 04:46:38;;;;;;;;;;;3.60;89.30;;;;;;5069002;27;19920;-62
2022/01/13 04:49:04;;;;;;;;;;;3.60;89.40;;;;;;5066730;28;19916;-62
2022/01/13 04:51:30;;;;;;;;;;;3.60;89.40;;;;;;5081740;28;20411;-62
2022/01/13 04:53:55;;;;;;;;;;;3.40;89.30;;;;;;5083161;28;20331;-62
2022/01/13 04:57:21;;;;;;;;;;;3.60;89.30;;;;;;5070343;28;20006;-62
2022/01/13 04:59:15;;;;;;;;;;;3.60;89.30;;;;;;5074825;28;19957;-62
2022/01/13 05:01:41;;;;;;;;;;;3.60;89.40;;;;;;5083967;28;19920;-62
2022/01/13 05:04:06;;;;;;;;;;;3.50;89.20;;;;;;5085974;28;19965;-62
2022/01/13 05:06:32;;;;;;;;;;;3.60;89.20;;;;;;5084034;28;19916;-62
2022/01/13 05:08:57;;;;;;;;;;;3.50;89.10;;;;;;5086279;28;19912;-62
2022/01/13 05:11:23;;;;;;;;;;;3.60;89.20;;;;;;5085464;28;19919;-62
2022/01/13 05:13:48;;;;;;;;;;;3.60;89.10;;;;;;5066920;28;19984;-62
2022/01/13 05:16:29;;;;;;;;;;;3.60;89.20;;;;;;5083101;28;19920;-62
2022/01/13 05:21:26;;;;;;;;;;;3.60;89.30;;;;;;5101608;28;19911;-62
2022/01/13 05:23:52;;;;;;;;;;;3.60;89.40;;;;;;5085875;28;19907;-62
2022/01/13 05:26:21;;;;;;;;;;;3.60;89.40;;;;;;5087080;28;19999;-62
2022/01/13 05:28:46;;;;;;;;;;;3.60;89.20;;;;;;5083112;28;19922;-62
2022/01/13 05:31:11;;;;;;;;;;;3.60;89.30;;;;;;5084888;28;19912;-62
2022/01/13 05:33:38;;;;;;;;;;;3.50;89.20;;;;;;5065653;28;19923;-62
2022/01/13 05:36:03;;;;;;;;;;;3.60;89.20;;;;;;5084870;28;19908;-61
2022/01/13 05:38:29;;;;;;;;;;;3.60;89.10;;;;;;5084600;28;19930;-62
2022/01/13 05:40:54;;;;;;;;;;;3.60;89.10;;;;;;5085906;28;20370;-62
2022/01/13 05:43:20;;;;;;;;;;;3.60;89.20;;;;;;5100320;28;19919;-62
2022/01/13 05:45:45;;;;;;;;;;;3.60;89.30;;;;;;5065315;28;19931;-62
2022/01/13 05:48:11;;;;;;;;;;;3.60;89.20;;;;;;5067788;28;19915;-62
2022/01/13 05:50:36;;;;;;;;;;;3.60;89.10;;;;;;5084362;28;20464;-62
2022/01/13 05:53:02;;;;;;;;;;;3.50;89.00;;;;;;5085606;28;19907;-62
2022/01/13 05:55:27;;;;;;;;;;;3.50;89.10;;;;;;5068067;28;19915;-62
2022/01/13 05:57:53;;;;;;;;;;;3.50;89.80;;;;;;5084125;28;20351;-62
2022/01/13 06:00:19;;;;;;;;;;;3.50;89.20;;;;;;5084277;28;20487;-62
2022/01/13 06:02:44;;;;;;;;;;;3.50;89.00;;;;;;5069141;28;19924;-62
2022/01/13 06:05:10;;;;;;;;;;;3.50;89.00;;;;;;5083774;28;19919;-62
2022/01/13 06:07:35;;;;;;;;;;;3.50;89.70;;;;;;5098860;28;19920;-62
2022/01/13 06:10:01;;;;;;;;;;;3.50;89.00;;;;;;5084137;28;19915;-62
2022/01/13 06:12:34;;;;;;;;;;;3.50;88.90;;;;;;5103116;28;19916;-62
2022/01/13 06:15:00;;;;;;;;;;;3.50;88.90;;;;;;5102838;28;19912;-62
2022/01/13 06:17:26;;;;;;;;;;;3.50;88.90;;;;;;5070022;28;20351;-62
2022/01/13 06:19:51;;;;;;;;;;;3.50;89.00;;;;;;5084467;28;19923;-62
2022/01/13 06:22:17;;;;;;;;;;;3.50;89.00;;;;;;5067083;28;20286;-62
2022/01/13 06:24:42;;;;;;;;;;;3.50;89.00;;;;;;5101182;28;19999;-62
2022/01/13 06:27:07;;;;;;;;;;;3.50;88.90;;;;;;5067223;28;19916;-62
2022/01/13 06:29:33;;;;;;;;;;;3.50;89.00;;;;;;5067478;28;19930;-62
2022/01/13 06:31:59;;;;;;;;;;;3.50;89.10;;;;;;5099834;28;20469;-62
2022/01/13 06:34:24;;;;;;;;;;;3.40;89.00;;;;;;5065667;28;19920;-62
2022/01/13 06:36:50;;;;;;;;;;;3.50;89.00;;;;;;5098454;28;19928;-62
2022/01/13 06:39:15;;;;;;;;;;;3.50;89.00;;;;;;5081199;28;20015;-61
2022/01/13 06:41:41;;;;;;;;;;;3.50;89.00;;;;;;5081710;28;19916;-62
2022/01/13 06:44:07;;;;;;;;;;;3.50;89.00;;;;;;5065774;28;20006;-62
2022/01/13 06:46:32;;;;;;;;;;;3.50;88.70;;;;;;5080488;28;20065;-61
2022/01/13 06:48:58;;;;;;;;;;;3.50;88.70;;;;;;5069260;28;19919;-62
2022/01/13 06:51:23;;;;;;;;;;;3.50;88.70;;;;;;5084944;28;19961;-62
2022/01/13 06:53:49;;;;;;;;;;;3.50;88.70;;;;;;5087959;28;19916;-62
2022/01/13 06:56:14;;;;;;;;;;;3.50;88.60;;;;;;5087637;28;19927;-62
2022/01/13 06:58:43;;;;;;;;;;;3.50;88.70;;;;;;5070128;28;19926;-62
2022/01/13 07:01:09;;;;;;;;;;;3.50;88.70;;;;;;5070482;28;19918;-62
2022/01/13 07:03:34;;;;;;;;;;;3.50;88.70;;;;;;5083808;28;19935;-62
2022/01/13 07:06:00;;;;;;;;;;;3.50;88.70;;;;;;5082525;28;19927;-62
2022/01/13 07:08:25;;;;;;;;;;;3.40;88.70;;;;;;5069468;28;20294;-61
2022/01/13 07:10:51;;;;;;;;;;;3.50;88.80;;;;;;5085476;28;19926;-62
2022/01/13 07:13:16;;;;;;;;;;;3.50;88.90;;;;;;5082405;28;19924;-62
2022/01/13 07:15:45;;;;;;;;;;;3.40;88.70;;;;;;5083482;27;19928;-62
2022/01/13 07:18:11;;;;;;;;;;;3.50;88.70;;;;;;5068528;28;19923;-61
2022/01/13 07:20:37;;;;;;;;;;;3.50;88.60;;;;;;5101619;28;19925;-62
2022/01/13 07:23:02;;;;;;;;;;;3.50;88.70;;;;;;5085011;28;19919;-62
2022/01/13 07:25:28;;;;;;;;;;;3.50;88.60;;;;;;5084055;28;20391;-62
2022/01/13 07:27:55;;;;;;;;;;;3.50;88.50;;;;;;5080598;27;19920;-62
2022/01/13 07:30:20;;;;;;;;;;;3.40;88.40;;;;;;5083232;28;19934;-62
2022/01/13 07:32:46;;;;;;;;;;;3.50;88.50;;;;;;5086881;28;19915;-61
2022/01/13 07:35:11;;;;;;;;;;;3.50;88.50;;;;;;5084869;28;20016;-62
2022/01/13 07:37:37;;;;;;;;;;;3.50;88.50;;;;;;5085016;28;20704;-62
2022/01/13 07:40:03;;;;;;;;;;;3.50;88.60;;;;;;5087261;28;20472;-62
2022/01/13 07:42:29;;;;;;;;;;;3.40;88.50;;;;;;5066283;28;19911;-61
2022/01/13 07:44:54;;;;;;;;;;;3.50;88.60;;;;;;5104050;28;19971;-62
2022/01/13 07:47:20;;;;;;;;;;;3.40;88.60;;;;;;5071487;28;20605;-62
2022/01/13 07:49:45;;;;;;;;;;;3.40;88.70;;;;;;5065426;28;19915;-61
2022/01/13 07:52:10;;;;;;;;;;;3.50;88.70;;;;;;5078244;27;20030;-62
2022/01/13 07:54:36;;;;;;;;;;;3.60;88.60;;;;;;5083012;28;19912;-62
2022/01/13 07:57:02;;;;;;;;;;;3.50;88.60;;;;;;5072706;28;19977;-62
2022/01/13 07:59:30;;;;;;;;;;;3.50;88.70;;;;;;5065066;28;20376;-62
2022/01/13 08:01:56;;;;;;;;;;;3.50;88.60;;;;;;5062866;28;20053;-62
2022/01/13 08:04:22;;;;;;;;;;;3.50;88.60;;;;;;5066527;28;20038;-62
2022/01/13 08:06:48;;;;;;;;;;;3.50;88.70;;;;;;5062143;28;20349;-63
2022/01/13 08:09:13;;;;;;;;;;;3.50;88.70;;;;;;5064700;28;19958;-62
2022/01/13 08:11:39;;;;;;;;;;;3.50;88.70;;;;;;5053372;28;19927;-62
2022/01/13 08:14:04;;;;;;;;;;;3.50;88.80;;;;;;5062017;28;20519;-62
2022/01/13 08:16:35;;;;;;;;;;;3.50;88.70;;;;;;5074274;28;20340;-62
2022/01/13 08:21:45;;;;;;;;;;;3.50;88.60;;;;;;5073746;28;19930;-61
2022/01/13 08:24:10;;;;;;;;;;;3.50;88.70;;;;;;5074102;28;19928;-62
2022/01/13 08:26:36;;;;;;;;;;;3.50;88.70;;;;;;5053820;28;20263;-62
2022/01/13 08:29:01;;;;;;;;;;;3.50;88.60;;;;;;5082129;28;20004;-62
2022/01/13 08:31:27;;;;;;;;;;;3.50;88.60;;;;;;5060904;28;19940;-62
2022/01/13 08:33:52;;;;;;;;;;;3.60;88.50;;;;;;5066008;28;20105;-62
2022/01/13 08:36:18;;;;;;;;;;;3.60;88.50;;;;;;5082468;28;19916;-62
2022/01/13 08:38:44;;;;;;;;;;;3.60;88.40;;;;;;5076415;28;20471;-62
2022/01/13 08:41:09;;;;;;;;;;;3.60;88.50;;;;;;5064730;28;19958;-63
2022/01/13 08:43:36;;;;;;;;;;;3.60;88.40;;;;;;5071102;28;19923;-60
2022/01/13 08:46:03;;;;;;;;;;;3.60;88.40;;;;;;5081993;28;19995;-61
2022/01/13 08:48:29;;;;;;;;;;;3.60;88.50;;;;;;5098317;28;20345;-61
2022/01/13 08:50:55;;;;;;;;;;;3.60;88.70;;;;;;5063290;28;19922;-61
2022/01/13 08:53:20;;;;;;;;;;;3.60;88.50;;;;;;5083573;28;19927;-61
2022/01/13 08:55:46;;;;;;;;;;;3.70;88.50;;;;;;5082063;28;19930;-61
2022/01/13 08:58:11;;;;;;;;;;;3.70;88.30;;;;;;5083682;28;19946;-61
2022/01/13 09:00:37;;;;;;;;;;;3.70;88.10;;;;;;5073872;28;19948;-61
2022/01/13 09:03:06;;;;;;;;;;;3.60;88.10;;;;;;5099242;28;19916;-61
2022/01/13 09:05:32;;;;;;;;;;;3.60;88.00;;;;;;5067055;28;19919;-61
2022/01/13 09:07:57;;;;;;;;;;;3.70;88.00;;;;;;5065524;28;19919;-61
2022/01/13 09:10:23;;;;;;;;;;;3.70;88.00;;;;;;5065047;28;19989;-61
2022/01/13 09:12:48;;;;;;;;;;;3.70;88.00;;;;;;5100125;28;20755;-61
2022/01/13 09:15:19;;;;;;;;;;;3.70;88.10;;;;;;5062790;28;19915;-61
2022/01/13 09:17:45;;;;;;;;;;;3.70;88.10;;;;;;5077547;28;19959;-61
2022/01/13 09:20:11;;;;;;;;;;;3.70;88.00;;;;;;5080462;28;19916;-61
2022/01/13 09:22:36;;;;;;;;;;;3.70;88.00;;;;;;5064513;28;19999;-61
2022/01/13 09:25:02;;;;;;;;;;;3.80;88.40;;;;;;5064105;28;20359;-61
2022/01/13 09:27:28;;;;;;;;;;;3.70;88.00;;;;;;5060547;28;19955;-61
2022/01/13 09:29:53;;;;;;;;;;;3.70;87.90;;;;;;5076329;28;20381;-61
2022/01/13 09:32:18;;;;;;;;;;;3.80;88.00;;;;;;5078826;28;19912;-61
2022/01/13 09:34:44;;;;;;;;;;;3.70;87.90;;;;;;5072019;28;19927;-61
2022/01/13 09:37:11;;;;;;;;;;;3.80;88.00;;;;;;5057966;28;19922;-61
2022/01/13 09:39:36;;;;;;;;;;;3.80;87.90;;;;;;5078694;28;20042;-61
2022/01/13 09:42:02;;;;;;;;;;;3.80;88.00;;;;;;5080099;28;20496;-61
2022/01/13 09:44:28;;;;;;;;;;;3.90;88.00;;;;;;5063996;28;19919;-61
2022/01/13 09:46:53;;;;;;;;;;;3.80;88.00;;;;;;5058671;28;19926;-61
2022/01/13 09:49:19;;;;;;;;;;;3.80;87.90;;;;;;5083365;28;19931;-61
2022/01/13 09:51:44;;;;;;;;;;;3.80;87.90;;;;;;5062455;28;20431;-61
2022/01/13 09:54:10;;;;;;;;;;;3.80;87.80;;;;;;5057912;28;19927;-61
2022/01/13 09:56:35;;;;;;;;;;;3.80;88.00;;;;;;5061354;28;19937;-61
2022/01/13 09:59:01;;;;;;;;;;;3.80;87.90;;;;;;5058190;28;19916;-61
2022/01/13 10:01:26;;;;;;;;;;;3.80;87.80;;;;;;5078600;28;20363;-61
2022/01/13 10:03:52;;;;;;;;;;;3.80;87.70;;;;;;5066979;28;19923;-61
2022/01/13 10:06:18;;;;;;;;;;;3.80;87.70;;;;;;5063500;28;19915;-61
2022/01/13 10:08:43;;;;;;;;;;;3.80;87.60;;;;;;5064862;28;20403;-61
2022/01/13 10:11:28;;;;;;;;;;;3.80;87.60;;;;;;5094963;28;19934;-61
2022/01/13 10:14:03;;;;;;;;;;;3.90;87.70;;;;;;5063636;28;19919;-61
2022/01/13 10:16:29;;;;;;;;;;;3.90;87.60;;;;;;5071931;28;19967;-61
2022/01/13 10:18:54;;;;;;;;;;;3.90;87.70;;;;;;5066349;28;19962;-61
2022/01/13 10:21:19;;;;;;;;;;;3.90;87.70;;;;;;5062263;28;20359;-61
2022/01/13 10:24:01;;;;;;;;;;;3.90;87.70;;;;;;5102813;27;19927;-61
2022/01/13 10:26:27;;;;;;;;;;;3.90;87.50;;;;;;5084872;28;19923;-61
2022/01/13 10:28:52;;;;;;;;;;;3.90;87.50;;;;;;5064799;28;20389;-61
2022/01/13 10:31:18;;;;;;;;;;;3.90;87.60;;;;;;5084355;28;19939;-61
2022/01/13 10:33:43;;;;;;;;;;;3.90;87.60;;;;;;5077335;28;20414;-61
2022/01/13 10:36:09;;;;;;;;;;;4.00;87.50;;;;;;5100867;28;19916;-61
2022/01/13 10:38:50;;;;;;;;;;;4.00;87.40;;;;;;5064773;27;19920;-61
2022/01/13 10:41:29;;;;;;;;;;;4.00;87.20;;;;;;5095984;28;20068;-61
2022/01/13 10:44:13;;;;;;;;;;;4.00;87.30;;;;;;5065366;28;19959;-61
2022/01/13 10:46:55;;;;;;;;;;;4.00;87.30;;;;;;5079036;28;20400;-61
2022/01/13 10:49:25;;;;;;;;;;;4.00;87.30;;;;;;5069012;28;19920;-61
2022/01/13 10:51:50;;;;;;;;;;;4.00;87.40;;;;;;5088734;28;19924;-61
2022/01/13 10:54:25;;;;;;;;;;;4.00;87.50;;;;;;5061331;28;20014;-61
2022/01/13 10:56:51;;;;;;;;;;;4.00;88.00;;;;;;5064907;28;20109;-61
2022/01/13 10:59:32;;;;;;;;;;;4.00;87.40;;;;;;5062138;28;19920;-61
2022/01/13 11:02:09;;;;;;;;;;;4.00;87.30;;;;;;5076996;28;19943;-61
2022/01/13 11:04:34;;;;;;;;;;;4.00;87.20;;;;;;5099112;27;19919;-61
2022/01/13 11:07:12;;;;;;;;;;;4.00;87.10;;;;;;5075246;27;19935;-61
2022/01/13 11:09:42;;;;;;;;;;;4.00;87.00;;;;;;5078829;28;19930;-61
2022/01/13 11:12:09;;;;;;;;;;;4.00;87.10;;;;;;5065515;28;19920;-61
2022/01/13 11:14:41;;;;;;;;;;;4.00;87.00;;;;;;5080568;27;20541;-61
2022/01/13 11:17:07;;;;;;;;;;;4.00;87.10;;;;;;5057263;28;19926;-61
2022/01/13 11:19:32;;;;;;;;;;;3.90;87.00;;;;;;5076187;28;19924;-61
2022/01/13 11:21:58;;;;;;;;;;;4.00;87.20;;;;;;5062269;28;19952;-61
2022/01/13 11:24:23;;;;;;;;;;;4.00;87.20;;;;;;5080421;28;19966;-61
2022/01/13 11:26:49;;;;;;;;;;;4.00;87.20;;;;;;5079412;28;20975;-61
2022/01/13 11:29:16;;;;;;;;;;;4.00;87.10;;;;;;5078434;28;19920;-61
2022/01/13 11:31:41;;;;;;;;;;;4.10;87.20;;;;;;5078123;28;19920;-61
2022/01/13 11:34:07;;;;;;;;;;;4.00;87.00;;;;;;5063934;28;19931;-61
2022/01/13 11:36:32;;;;;;;;;;;4.10;87.10;;;;;;5063325;28;19918;-61
2022/01/13 11:38:58;;;;;;;;;;;4.00;87.10;;;;;;5055863;28;19926;-61
2022/01/13 11:41:24;;;;;;;;;;;4.00;87.00;;;;;;5072384;28;19919;-61
2022/01/13 11:43:50;;;;;;;;;;;4.10;87.20;;;;;;5060771;28;19919;-61
2022/01/13 11:46:19;;;;;;;;;;;4.10;87.10;;;;;;5062304;28;20069;-61
2022/01/13 11:48:54;;;;;;;;;;;4.10;87.00;;;;;;5064276;28;20434;-61
2022/01/13 11:51:21;;;;;;;;;;;4.10;86.90;;;;;;5076063;28;19976;-61
2022/01/13 11:53:54;;;;;;;;;;;4.10;87.00;;;;;;5078883;28;19926;-61
2022/01/13 11:56:20;;;;;;;;;;;4.10;87.00;;;;;;5066267;28;19911;-61
2022/01/13 11:58:45;;;;;;;;;;;4.10;87.10;;;;;;5063427;28;19916;-61
2022/01/13 12:01:18;;;;;;;;;;;4.10;87.00;;;;;;5059745;28;19973;-61
2022/01/13 12:03:47;;;;;;;;;;;4.10;86.90;;;;;;5095328;28;20010;-61
2022/01/13 12:06:30;;;;;;;;;;;4.10;86.90;;;;;;5064839;28;20264;-61
2022/01/13 12:08:57;;;;;;;;;;;4.10;87.00;;;;;;5074858;28;19943;-61
2022/01/13 12:11:38;;;;;;;;;;;4.10;87.00;;;;;;5079298;28;19918;-61
2022/01/13 12:14:22;;;;;;;;;;;4.10;86.90;;;;;;5082834;28;19924;-61
2022/01/13 12:16:52;;;;;;;;;;;4.10;87.00;;;;;;5101060;28;20371;-61
2022/01/13 12:19:27;;;;;;;;;;;4.10;87.00;;;;;;5070763;28;19951;-60
2022/01/13 12:22:02;;;;;;;;;;;4.10;87.10;;;;;;5081089;28;19919;-59
2022/01/13 12:24:44;;;;;;;;;;;4.20;87.30;;;;;;5097323;28;19964;-59
2022/01/13 12:27:09;;;;;;;;;;;4.20;87.20;;;;;;5078033;28;20419;-60
2022/01/13 12:29:36;;;;;;;;;;;4.10;87.10;;;;;;5076502;28;19942;-59
2022/01/13 12:32:03;;;;;;;;;;;4.10;87.40;;;;;;5074059;27;21481;-60
2022/01/13 12:34:28;;;;;;;;;;;4.20;87.00;;;;;;5062655;28;19923;-59
2022/01/13 12:36:57;;;;;;;;;;;4.10;87.00;;;;;;5099232;27;19957;-59
2022/01/13 12:39:23;;;;;;;;;;;4.10;87.00;;;;;;5066336;28;19946;-59
2022/01/13 12:41:58;;;;;;;;;;;4.20;87.20;;;;;;5082938;28;19923;-60
2022/01/13 12:45:27;;;;;;;;;;;4.20;87.10;;;;;;5066666;28;20010;-59
2022/01/13 12:47:09;;;;;;;;;;;4.20;87.00;;;;;;5099067;28;19922;-59
2022/01/13 12:49:35;;;;;;;;;;;4.20;86.90;;;;;;5083291;28;19920;-60
2022/01/13 12:52:01;;;;;;;;;;;4.20;86.90;;;;;;5080730;28;19973;-60
2022/01/13 12:54:26;;;;;;;;;;;4.20;86.90;;;;;;5068646;28;20371;-60
2022/01/13 12:56:51;;;;;;;;;;;4.20;86.90;;;;;;5068624;28;19934;-60
2022/01/13 12:59:17;;;;;;;;;;;4.20;86.90;;;;;;5083620;28;19936;-60
2022/01/13 13:01:42;;;;;;;;;;;4.10;86.80;;;;;;5066767;28;19919;-59
2022/01/13 13:04:08;;;;;;;;;;;4.10;86.80;;;;;;5082531;28;20290;-60
2022/01/13 13:06:35;;;;;;;;;;;4.10;86.70;;;;;;5066576;28;19938;-60
2022/01/13 13:09:07;;;;;;;;;;;4.10;86.70;;;;;;5062165;28;20037;-60
2022/01/13 13:11:33;;;;;;;;;;;4.20;86.70;;;;;;5078355;28;19922;-59
2022/01/13 13:14:00;;;;;;;;;;;4.20;86.60;;;;;;5080185;28;19912;-59
2022/01/13 13:16:25;;;;;;;;;;;4.20;86.60;;;;;;5096692;28;19916;-59
2022/01/13 13:18:52;;;;;;;;;;;4.10;86.50;;;;;;5064010;28;19916;-59
2022/01/13 13:21:17;;;;;;;;;;;4.20;86.60;;;;;;5100337;28;19920;-60
2022/01/13 13:23:44;;;;;;;;;;;4.20;86.70;;;;;;5064952;28;19916;-59
2022/01/13 13:26:15;;;;;;;;;;;4.20;86.50;;;;;;5065202;28;19951;-59
2022/01/13 13:28:41;;;;;;;;;;;4.20;86.50;;;;;;5082594;28;19920;-59
2022/01/13 13:31:16;;;;;;;;;;;4.20;86.50;;;;;;5097464;28;19908;-60
2022/01/13 13:33:43;;;;;;;;;;;4.20;86.50;;;;;;5083708;28;19915;-59
2022/01/13 13:36:28;;;;;;;;;;;4.10;86.50;;;;;;5057366;28;19912;-60
2022/01/13 13:38:55;;;;;;;;;;;4.20;86.60;;;;;;5099723;28;19930;-59
2022/01/13 13:41:21;;;;;;;;;;;4.30;86.70;;;;;;5078398;28;19924;-60
2022/01/13 13:43:47;;;;;;;;;;;4.20;86.60;;;;;;5083581;28;19916;-59
2022/01/13 13:46:13;;;;;;;;;;;4.20;86.60;;;;;;5084618;28;19924;-59
2022/01/13 13:48:40;;;;;;;;;;;4.20;86.50;;;;;;5056495;28;20445;-60
2022/01/13 13:51:05;;;;;;;;;;;4.20;86.40;;;;;;5080992;28;19966;-59
2022/01/13 13:53:31;;;;;;;;;;;4.20;86.50;;;;;;5058827;28;19951;-59
2022/01/13 13:55:58;;;;;;;;;;;4.30;86.50;;;;;;5079738;28;19920;-59
2022/01/13 13:58:23;;;;;;;;;;;4.20;86.30;;;;;;5086587;28;19919;-60
2022/01/13 14:00:55;;;;;;;;;;;4.30;86.30;;;;;;5066533;28;19919;-59
2022/01/13 14:03:23;;;;;;;;;;;4.30;86.30;;;;;;5080207;28;19967;-60
2022/01/13 14:05:48;;;;;;;;;;;4.20;86.30;;;;;;5063474;27;20588;-59
2022/01/13 14:08:14;;;;;;;;;;;4.30;86.40;;;;;;5069298;28;19926;-60
2022/01/13 14:10:39;;;;;;;;;;;4.30;86.40;;;;;;5087179;28;20343;-60
2022/01/13 14:13:05;;;;;;;;;;;4.30;86.30;;;;;;5083818;28;19920;-60
2022/01/13 14:15:33;;;;;;;;;;;4.30;86.40;;;;;;5067950;28;19920;-60
2022/01/13 14:18:07;;;;;;;;;;;4.30;86.30;;;;;;5096767;28;19920;-60
2022/01/13 14:20:33;;;;;;;;;;;4.30;86.20;;;;;;5081638;28;21884;-60
2022/01/13 14:23:00;;;;;;;;;;;4.30;86.20;;;;;;5077731;28;19938;-60
2022/01/13 14:25:32;;;;;;;;;;;4.40;86.30;;;;;;5102621;27;19920;-60
2022/01/13 14:27:59;;;;;;;;;;;4.40;86.20;;;;;;5080847;28;19923;-60
2022/01/13 14:30:35;;;;;;;;;;;4.40;86.10;;;;;;5080054;28;19920;-60
2022/01/13 14:33:19;;;;;;;;;;;4.40;86.10;;;;;;5073714;28;20011;-60
2022/01/13 14:35:48;;;;;;;;;;;4.40;86.00;;;;;;5082475;28;19966;-60
2022/01/13 14:38:14;;;;;;;;;;;4.50;86.10;;;;;;5069584;28;19922;-60
2022/01/13 14:40:46;;;;;;;;;;;4.40;86.10;;;;;;5062834;28;19924;-60
2022/01/13 14:43:18;;;;;;;;;;;4.50;86.10;;;;;;5080285;28;19928;-60
2022/01/13 14:45:47;;;;;;;;;;;4.50;86.10;;;;;;5081016;28;20005;-60
2022/01/13 14:48:13;;;;;;;;;;;4.50;85.90;;;;;;5083907;28;19985;-60